Front Circassia — V7JX6 — position and weather

sailwx.info

Track history (hours):
 
Tides and Currents Weather Stations Pressure Air Temp Water Temp Dewpoint Dewpoint Depression Visibility Wind Speed Wind Dir Waves Ship Positions

Front Circassia

Last reported at 2017-Jul-01 08:15 UTC. Time now 2017-Jul-23 10:50 UTC.
Position N 01°56' E 102°17'.
Warning: this ship's position is 22 days out of date.

Length 333 m; draft 11.2 m.

Type: Tanker. MMSI: 538002584.

Date/timePositionNaut miles runAvg speedWind from/ knotsBaromVisibWave heightAir tempDewpointWater temp
2017-Jul-01 08:15N 01°56' E 102°17'312.5
2017-Jul-01 08:00N 01°55' E 102°20'612.1
2017-Jul-01 07:29N 01°52' E 102°26'612.2
2017-Jul-01 07:00N 01°49' E 102°31'611.8
2017-Jul-01 06:28N 01°46' E 102°36'5413.0
2017-Jul-01 02:19N 01°17' E 103°22'514.1
2017-Jul-01 01:59N 01°14' E 103°26'612.2
2017-Jul-01 01:30N 01°13' E 103°32'3 6.7
2017-Jul-01 01:00N 01°12' E 103°35'3 5.7
2017-Jul-01 00:30N 01°12' E 103°38'3 5.3
2017-Jul-01 00:00N 01°11' E 103°40'3 5.1
2017-Jun-30 23:30N 01°10' E 103°42'2 4.8
2017-Jun-30 23:00N 01°09' E 103°44'3 5.6
2017-Jun-30 22:30N 01°10' E 103°47'4 7.9
2017-Jun-30 22:00N 01°11' E 103°50'4 8.0
2017-Jun-30 21:30N 01°13' E 103°54'4 8.8
2017-Jun-30 21:00N 01°15' E 103°58'4 7.0
2017-Jun-30 20:30N 01°16' E 104°02'3 6.9
2017-Jun-30 20:00N 01°16' E 104°05'  
2017-Jun-25 04:38N 22°10' E 120°08'513.4
2017-Jun-25 04:17N 22°15' E 120°10'413.9
2017-Jun-25 04:00N 22°18' E 120°11'713.5
2017-Jun-25 03:30N 22°24' E 120°15'5 9.7
2017-Jun-25 03:00N 22°28' E 120°18'0 0.0
2017-Jun-24 22:16N 22°28' E 120°18'0 0.2
2017-Jun-24 21:58N 22°28' E 120°17'0 0.1
2017-Jun-24 21:28N 22°28' E 120°18'0 0.1
2017-Jun-24 20:59N 22°28' E 120°17'0 0.0
2017-Jun-24 20:28N 22°28' E 120°17'0 0.0
2017-Jun-24 19:58N 22°28' E 120°17'0 0.1
2017-Jun-24 19:28N 22°28' E 120°18'0 0.1
2017-Jun-24 18:58N 22°28' E 120°17'0 0.0
2017-Jun-24 18:28N 22°28' E 120°17'0 0.0
2017-Jun-24 17:58N 22°28' E 120°17'0 0.1
2017-Jun-24 17:28N 22°28' E 120°17'0 0.1
2017-Jun-24 16:58N 22°28' E 120°17'0 0.1
2017-Jun-24 16:07N 22°28' E 120°18'0 0.0
2017-Jun-24 15:52N 22°28' E 120°18'0 0.0
2017-Jun-24 15:28N 22°28' E 120°18'0 0.0
2017-Jun-24 14:58N 22°28' E 120°18'0 0.0
2017-Jun-24 13:55N 22°28' E 120°18'0 0.0
2017-Jun-24 13:28N 22°28' E 120°18'0 0.0
2017-Jun-24 12:37N 22°28' E 120°18'0 0.1
2017-Jun-24 12:10N 22°28' E 120°18'0 0.1
2017-Jun-24 11:58N 22°28' E 120°18'0 0.0
2017-Jun-24 11:28N 22°28' E 120°18'0 0.0
2017-Jun-24 10:55N 22°28' E 120°18'0 0.1
2017-Jun-24 10:28N 22°28' E 120°18'0 0.1
2017-Jun-24 09:49N 22°28' E 120°18'0 0.1
2017-Jun-24 09:19N 22°28' E 120°17'0 0.1
2017-Jun-24 08:52N 22°28' E 120°18'0 0.1
2017-Jun-24 08:22N 22°28' E 120°17'0 0.1
2017-Jun-24 05:49N 22°28' E 120°17'0 0.2
2017-Jun-24 05:28N 22°28' E 120°17'0 0.0
2017-Jun-24 03:40N 22°28' E 120°17'0 0.0
2017-Jun-24 03:28N 22°28' E 120°17'0 0.0
2017-Jun-24 02:23N 22°28' E 120°17'0 0.4
2017-Jun-24 02:00N 22°29' E 120°17'1 1.5
2017-Jun-24 01:30N 22°29' E 120°16'1 2.3
2017-Jun-24 01:00N 22°29' E 120°15'1 2.9
2017-Jun-24 00:30N 22°28' E 120°15'1 1.7
2017-Jun-24 00:00N 22°27' E 120°15'1 1.8
2017-Jun-23 23:30N 22°27' E 120°16'1 2.2
2017-Jun-23 23:00N 22°26' E 120°17'0 0.5
2017-Jun-23 22:27N 22°26' E 120°18'0 0.1
2017-Jun-23 22:00N 22°27' E 120°18'0 0.0
2017-Jun-23 21:27N 22°26' E 120°18'0 0.0
2017-Jun-23 21:00N 22°26' E 120°18'0 0.1
2017-Jun-23 20:27N 22°26' E 120°18'0 0.0
2017-Jun-23 20:00N 22°26' E 120°18'0 0.1
2017-Jun-23 19:30N 22°26' E 120°17'0 0.0
2017-Jun-23 19:00N 22°26' E 120°17'0 0.1
2017-Jun-23 18:30N 22°26' E 120°17'0 0.0
2017-Jun-23 18:00N 22°27' E 120°17'0 0.0
2017-Jun-23 17:27N 22°26' E 120°17'0 0.1
2017-Jun-23 17:00N 22°27' E 120°17'0 0.1
2017-Jun-23 16:30N 22°27' E 120°17'0 0.0
2017-Jun-23 16:00N 22°27' E 120°17'0 0.0
2017-Jun-23 15:30N 22°27' E 120°17'0 0.1
2017-Jun-23 14:36N 22°27' E 120°18'0 0.2
2017-Jun-23 14:18N 22°27' E 120°18'0 0.1
2017-Jun-23 13:30N 22°27' E 120°18'0 0.1
2017-Jun-23 11:57N 22°27' E 120°18'0 0.1
2017-Jun-23 11:30N 22°27' E 120°18'0 0.0
2017-Jun-23 11:00N 22°27' E 120°18'0 0.0
2017-Jun-23 10:30N 22°27' E 120°18'0 0.1
2017-Jun-23 09:54N 22°27' E 120°18'0 0.0
2017-Jun-23 09:09N 22°27' E 120°18'0 0.0
2017-Jun-23 08:57N 22°27' E 120°18'0 0.0
2017-Jun-23 08:30N 22°27' E 120°18'0 0.1
2017-Jun-23 08:00N 22°27' E 120°18'0 0.1
2017-Jun-23 07:21N 22°27' E 120°18'0 0.2
2017-Jun-23 07:00N 22°27' E 120°17'0 0.1
2017-Jun-23 06:24N 22°27' E 120°17'0 0.1
2017-Jun-23 06:00N 22°27' E 120°17'0 0.1
2017-Jun-23 05:27N 22°27' E 120°17'0 0.1
2017-Jun-23 05:00N 22°27' E 120°17'0 0.1
2017-Jun-23 04:30N 22°27' E 120°17'0 0.1
2017-Jun-23 04:00N 22°27' E 120°17'0 0.1
2017-Jun-23 03:27N 22°27' E 120°17'0 0.0
2017-Jun-23 03:00N 22°27' E 120°17'0 0.0
2017-Jun-23 02:30N 22°27' E 120°17'0 0.0
2017-Jun-23 02:00N 22°27' E 120°17'0 0.0
2017-Jun-23 01:27N 22°27' E 120°17'0 0.0
2017-Jun-23 01:00N 22°27' E 120°17'0 0.1
2017-Jun-23 00:21N 22°27' E 120°17'0 0.2
2017-Jun-23 00:00N 22°27' E 120°17'0 0.3
2017-Jun-22 23:27N 22°27' E 120°17'0 0.3
2017-Jun-22 23:00N 22°27' E 120°17'0 0.2
2017-Jun-22 22:30N 22°27' E 120°18'0 0.0
2017-Jun-22 22:00N 22°27' E 120°18'0 0.1
2017-Jun-22 21:30N 22°27' E 120°18'0 0.0
2017-Jun-22 21:00N 22°27' E 120°18'0 0.1
2017-Jun-22 20:30N 22°27' E 120°18'0 0.0
2017-Jun-22 20:00N 22°26' E 120°18'0 0.0
2017-Jun-22 19:30N 22°27' E 120°18'0 0.0
2017-Jun-22 19:00N 22°26' E 120°18'0 0.1
2017-Jun-22 18:30N 22°27' E 120°18'0 0.0
2017-Jun-22 18:00N 22°26' E 120°18'0 0.1
2017-Jun-22 17:30N 22°27' E 120°18'0 0.2
2017-Jun-22 16:54N 22°27' E 120°17'0 0.0
2017-Jun-22 16:30N 22°27' E 120°17'0 0.0
2017-Jun-22 16:00N 22°27' E 120°17'0 0.1
2017-Jun-22 15:30N 22°27' E 120°18'0 0.0
2017-Jun-22 15:00N 22°27' E 120°18'0 0.2
2017-Jun-22 14:00N 22°27' E 120°18'0 0.0
2017-Jun-22 13:30N 22°27' E 120°18'0 0.0
2017-Jun-22 13:00N 22°27' E 120°18'0 0.0
2017-Jun-22 12:30N 22°27' E 120°18'0 0.0
2017-Jun-22 11:12N 22°27' E 120°18'0 0.1
2017-Jun-22 11:00N 22°27' E 120°18'0 0.0
2017-Jun-22 10:27N 22°27' E 120°18'0 0.0
2017-Jun-22 10:00N 22°27' E 120°18'0 0.0
2017-Jun-22 09:24N 22°27' E 120°18'0 0.0
2017-Jun-22 08:57N 22°27' E 120°18'0 0.1
2017-Jun-22 08:30N 22°27' E 120°18'0 0.0
2017-Jun-22 08:00N 22°27' E 120°18'0 0.0
2017-Jun-22 07:30N 22°27' E 120°18'0 0.1
2017-Jun-22 07:00N 22°27' E 120°18'0 0.2
2017-Jun-22 06:30N 22°27' E 120°17'0 0.1
2017-Jun-22 06:00N 22°27' E 120°17'0 0.2
2017-Jun-22 05:30N 22°27' E 120°17'0 0.0
2017-Jun-22 05:00N 22°27' E 120°17'0 0.1
2017-Jun-22 04:30N 22°27' E 120°17'0 0.1
2017-Jun-22 04:00N 22°27' E 120°17'0 0.0
2017-Jun-22 03:21N 22°27' E 120°17'0 0.0
2017-Jun-22 02:57N 22°27' E 120°17'0 0.1
2017-Jun-22 02:30N 22°27' E 120°17'0 0.0
2017-Jun-22 02:00N 22°27' E 120°17'0 0.0
2017-Jun-22 01:30N 22°27' E 120°17'0 0.0
2017-Jun-22 01:00N 22°27' E 120°17'0 0.0
2017-Jun-22 00:06N 22°27' E 120°17'0 0.0
2017-Jun-22 00:00N 22°27' E 120°17'0 0.0
2017-Jun-21 23:30N 22°27' E 120°17'0 0.1
2017-Jun-21 22:57N 22°27' E 120°18'0 0.3
2017-Jun-21 22:27N 22°27' E 120°18'0 0.3
2017-Jun-21 21:57N 22°27' E 120°18'0 0.2
2017-Jun-21 21:30N 22°27' E 120°18'0 0.0
2017-Jun-21 21:00N 22°27' E 120°18'0 0.0
2017-Jun-21 20:30N 22°27' E 120°18'0 0.0
2017-Jun-21 20:00N 22°26' E 120°18'0 0.0
2017-Jun-21 19:30N 22°26' E 120°18'0 0.0
2017-Jun-21 19:00N 22°26' E 120°18'0 0.1
2017-Jun-21 18:30N 22°26' E 120°18'0 0.1
2017-Jun-21 18:00N 22°26' E 120°17'0 0.1
2017-Jun-21 17:30N 22°27' E 120°17'0 0.0
2017-Jun-21 17:00N 22°26' E 120°17'0 0.2
2017-Jun-21 16:30N 22°27' E 120°18'0 0.1
2017-Jun-21 16:00N 22°27' E 120°18'0 0.0
2017-Jun-21 15:30N 22°27' E 120°18'0 0.0
2017-Jun-21 15:00N 22°27' E 120°18'0 0.1
2017-Jun-21 14:30N 22°27' E 120°18'0 0.1
2017-Jun-21 12:42N 22°27' E 120°18'0 0.0
2017-Jun-21 11:21N 22°27' E 120°18'0 0.0
2017-Jun-21 10:51N 22°27' E 120°18'0 0.0
2017-Jun-21 10:30N 22°27' E 120°18'0 0.0
2017-Jun-21 10:00N 22°27' E 120°18'0 0.0
2017-Jun-21 09:30N 22°27' E 120°18'0 0.0
2017-Jun-21 09:00N 22°27' E 120°18'0 0.0
2017-Jun-21 08:30N 22°27' E 120°18'  
Track history (hours):
 
Tides and Currents Weather Stations Pressure Air Temp Water Temp Dewpoint Dewpoint Depression Visibility Wind Speed Wind Dir Waves Ship Positions

Front Circassia

Last reported at 2017-Jul-01 08:15 UTC. Time now 2017-Jul-23 10:51 UTC.
Position N 01°56' E 102°17'.
Warning: this ship's position is 22 days out of date.

Length 333 m; draft 11.2 m.

Type: Tanker. MMSI: 538002584.

Date/timePositionNaut miles runAvg speedWind from/ knotsBaromVisibWave heightAir tempDewpointWater temp
2017-Jul-01 08:15N 01°56' E 102°17'312.5
2017-Jul-01 08:00N 01°55' E 102°20'612.1
2017-Jul-01 07:29N 01°52' E 102°26'612.2
2017-Jul-01 07:00N 01°49' E 102°31'611.8
2017-Jul-01 06:28N 01°46' E 102°36'5413.0
2017-Jul-01 02:19N 01°17' E 103°22'514.1
2017-Jul-01 01:59N 01°14' E 103°26'612.2
2017-Jul-01 01:30N 01°13' E 103°32'3 6.7
2017-Jul-01 01:00N 01°12' E 103°35'3 5.7
2017-Jul-01 00:30N 01°12' E 103°38'3 5.3
2017-Jul-01 00:00N 01°11' E 103°40'3 5.1
2017-Jun-30 23:30N 01°10' E 103°42'2 4.8
2017-Jun-30 23:00N 01°09' E 103°44'3 5.6
2017-Jun-30 22:30N 01°10' E 103°47'4 7.9
2017-Jun-30 22:00N 01°11' E 103°50'4 8.0
2017-Jun-30 21:30N 01°13' E 103°54'4 8.8
2017-Jun-30 21:00N 01°15' E 103°58'4 7.0
2017-Jun-30 20:30N 01°16' E 104°02'3 6.9
2017-Jun-30 20:00N 01°16' E 104°05'  
2017-Jun-25 04:38N 22°10' E 120°08'513.4
2017-Jun-25 04:17N 22°15' E 120°10'413.9
2017-Jun-25 04:00N 22°18' E 120°11'713.5
2017-Jun-25 03:30N 22°24' E 120°15'5 9.7
2017-Jun-25 03:00N 22°28' E 120°18'0 0.0
2017-Jun-24 22:16N 22°28' E 120°18'0 0.2
2017-Jun-24 21:58N 22°28' E 120°17'0 0.1
2017-Jun-24 21:28N 22°28' E 120°18'0 0.1
2017-Jun-24 20:59N 22°28' E 120°17'0 0.0
2017-Jun-24 20:28N 22°28' E 120°17'0 0.0
2017-Jun-24 19:58N 22°28' E 120°17'0 0.1
2017-Jun-24 19:28N 22°28' E 120°18'0 0.1
2017-Jun-24 18:58N 22°28' E 120°17'0 0.0
2017-Jun-24 18:28N 22°28' E 120°17'0 0.0
2017-Jun-24 17:58N 22°28' E 120°17'0 0.1
2017-Jun-24 17:28N 22°28' E 120°17'0 0.1
2017-Jun-24 16:58N 22°28' E 120°17'0 0.1
2017-Jun-24 16:07N 22°28' E 120°18'0 0.0
2017-Jun-24 15:52N 22°28' E 120°18'0 0.0
2017-Jun-24 15:28N 22°28' E 120°18'0 0.0
2017-Jun-24 14:58N 22°28' E 120°18'0 0.0
2017-Jun-24 13:55N 22°28' E 120°18'0 0.0
2017-Jun-24 13:28N 22°28' E 120°18'0 0.0
2017-Jun-24 12:37N 22°28' E 120°18'0 0.1
2017-Jun-24 12:10N 22°28' E 120°18'0 0.1
2017-Jun-24 11:58N 22°28' E 120°18'0 0.0
2017-Jun-24 11:28N 22°28' E 120°18'0 0.0
2017-Jun-24 10:55N 22°28' E 120°18'0 0.1
2017-Jun-24 10:28N 22°28' E 120°18'0 0.1
2017-Jun-24 09:49N 22°28' E 120°18'0 0.1
2017-Jun-24 09:19N 22°28' E 120°17'0 0.1
2017-Jun-24 08:52N 22°28' E 120°18'0 0.1
2017-Jun-24 08:22N 22°28' E 120°17'0 0.1
2017-Jun-24 05:49N 22°28' E 120°17'0 0.2
2017-Jun-24 05:28N 22°28' E 120°17'0 0.0
2017-Jun-24 03:40N 22°28' E 120°17'0 0.0
2017-Jun-24 03:28N 22°28' E 120°17'0 0.0
2017-Jun-24 02:23N 22°28' E 120°17'0 0.4
2017-Jun-24 02:00N 22°29' E 120°17'1 1.5
2017-Jun-24 01:30N 22°29' E 120°16'1 2.3
2017-Jun-24 01:00N 22°29' E 120°15'1 2.9
2017-Jun-24 00:30N 22°28' E 120°15'1 1.7
2017-Jun-24 00:00N 22°27' E 120°15'1 1.8
2017-Jun-23 23:30N 22°27' E 120°16'1 2.2
2017-Jun-23 23:00N 22°26' E 120°17'0 0.5
2017-Jun-23 22:27N 22°26' E 120°18'0 0.1
2017-Jun-23 22:00N 22°27' E 120°18'0 0.0
2017-Jun-23 21:27N 22°26' E 120°18'0 0.0
2017-Jun-23 21:00N 22°26' E 120°18'0 0.1
2017-Jun-23 20:27N 22°26' E 120°18'0 0.0
2017-Jun-23 20:00N 22°26' E 120°18'0 0.1
2017-Jun-23 19:30N 22°26' E 120°17'0 0.0
2017-Jun-23 19:00N 22°26' E 120°17'0 0.1
2017-Jun-23 18:30N 22°26' E 120°17'0 0.0
2017-Jun-23 18:00N 22°27' E 120°17'0 0.0
2017-Jun-23 17:27N 22°26' E 120°17'0 0.1
2017-Jun-23 17:00N 22°27' E 120°17'0 0.1
2017-Jun-23 16:30N 22°27' E 120°17'0 0.0
2017-Jun-23 16:00N 22°27' E 120°17'0 0.0
2017-Jun-23 15:30N 22°27' E 120°17'0 0.1
2017-Jun-23 14:36N 22°27' E 120°18'0 0.2
2017-Jun-23 14:18N 22°27' E 120°18'0 0.1
2017-Jun-23 13:30N 22°27' E 120°18'0 0.1
2017-Jun-23 11:57N 22°27' E 120°18'0 0.1
2017-Jun-23 11:30N 22°27' E 120°18'0 0.0
2017-Jun-23 11:00N 22°27' E 120°18'0 0.0
2017-Jun-23 10:30N 22°27' E 120°18'0 0.1
2017-Jun-23 09:54N 22°27' E 120°18'0 0.0
2017-Jun-23 09:09N 22°27' E 120°18'0 0.0
2017-Jun-23 08:57N 22°27' E 120°18'0 0.0
2017-Jun-23 08:30N 22°27' E 120°18'0 0.1
2017-Jun-23 08:00N 22°27' E 120°18'0 0.1
2017-Jun-23 07:21N 22°27' E 120°18'0 0.2
2017-Jun-23 07:00N 22°27' E 120°17'0 0.1
2017-Jun-23 06:24N 22°27' E 120°17'0 0.1
2017-Jun-23 06:00N 22°27' E 120°17'0 0.1
2017-Jun-23 05:27N 22°27' E 120°17'0 0.1
2017-Jun-23 05:00N 22°27' E 120°17'0 0.1
2017-Jun-23 04:30N 22°27' E 120°17'0 0.1
2017-Jun-23 04:00N 22°27' E 120°17'0 0.1
2017-Jun-23 03:27N 22°27' E 120°17'0 0.0
2017-Jun-23 03:00N 22°27' E 120°17'0 0.0
2017-Jun-23 02:30N 22°27' E 120°17'0 0.0
2017-Jun-23 02:00N 22°27' E 120°17'0 0.0
2017-Jun-23 01:27N 22°27' E 120°17'0 0.0
2017-Jun-23 01:00N 22°27' E 120°17'0 0.1
2017-Jun-23 00:21N 22°27' E 120°17'0 0.2
2017-Jun-23 00:00N 22°27' E 120°17'0 0.3
2017-Jun-22 23:27N 22°27' E 120°17'0 0.3
2017-Jun-22 23:00N 22°27' E 120°17'0 0.2
2017-Jun-22 22:30N 22°27' E 120°18'0 0.0
2017-Jun-22 22:00N 22°27' E 120°18'0 0.1
2017-Jun-22 21:30N 22°27' E 120°18'0 0.0
2017-Jun-22 21:00N 22°27' E 120°18'0 0.1
2017-Jun-22 20:30N 22°27' E 120°18'0 0.0
2017-Jun-22 20:00N 22°26' E 120°18'0 0.0
2017-Jun-22 19:30N 22°27' E 120°18'0 0.0
2017-Jun-22 19:00N 22°26' E 120°18'0 0.1
2017-Jun-22 18:30N 22°27' E 120°18'0 0.0
2017-Jun-22 18:00N 22°26' E 120°18'0 0.1
2017-Jun-22 17:30N 22°27' E 120°18'0 0.2
2017-Jun-22 16:54N 22°27' E 120°17'0 0.0
2017-Jun-22 16:30N 22°27' E 120°17'0 0.0
2017-Jun-22 16:00N 22°27' E 120°17'0 0.1
2017-Jun-22 15:30N 22°27' E 120°18'0 0.0
2017-Jun-22 15:00N 22°27' E 120°18'0 0.2
2017-Jun-22 14:00N 22°27' E 120°18'0 0.0
2017-Jun-22 13:30N 22°27' E 120°18'0 0.0
2017-Jun-22 13:00N 22°27' E 120°18'0 0.0
2017-Jun-22 12:30N 22°27' E 120°18'0 0.0
2017-Jun-22 11:12N 22°27' E 120°18'0 0.1
2017-Jun-22 11:00N 22°27' E 120°18'0 0.0
2017-Jun-22 10:27N 22°27' E 120°18'0 0.0
2017-Jun-22 10:00N 22°27' E 120°18'0 0.0
2017-Jun-22 09:24N 22°27' E 120°18'0 0.0
2017-Jun-22 08:57N 22°27' E 120°18'0 0.1
2017-Jun-22 08:30N 22°27' E 120°18'0 0.0
2017-Jun-22 08:00N 22°27' E 120°18'0 0.0
2017-Jun-22 07:30N 22°27' E 120°18'0 0.1
2017-Jun-22 07:00N 22°27' E 120°18'0 0.2
2017-Jun-22 06:30N 22°27' E 120°17'0 0.1
2017-Jun-22 06:00N 22°27' E 120°17'0 0.2
2017-Jun-22 05:30N 22°27' E 120°17'0 0.0
2017-Jun-22 05:00N 22°27' E 120°17'0 0.1
2017-Jun-22 04:30N 22°27' E 120°17'0 0.1
2017-Jun-22 04:00N 22°27' E 120°17'0 0.0
2017-Jun-22 03:21N 22°27' E 120°17'0 0.0
2017-Jun-22 02:57N 22°27' E 120°17'0 0.1
2017-Jun-22 02:30N 22°27' E 120°17'0 0.0
2017-Jun-22 02:00N 22°27' E 120°17'0 0.0
2017-Jun-22 01:30N 22°27' E 120°17'0 0.0
2017-Jun-22 01:00N 22°27' E 120°17'0 0.0
2017-Jun-22 00:06N 22°27' E 120°17'0 0.0
2017-Jun-22 00:00N 22°27' E 120°17'0 0.0
2017-Jun-21 23:30N 22°27' E 120°17'0 0.1
2017-Jun-21 22:57N 22°27' E 120°18'0 0.3
2017-Jun-21 22:27N 22°27' E 120°18'0 0.3
2017-Jun-21 21:57N 22°27' E 120°18'0 0.2
2017-Jun-21 21:30N 22°27' E 120°18'0 0.0
2017-Jun-21 21:00N 22°27' E 120°18'0 0.0
2017-Jun-21 20:30N 22°27' E 120°18'0 0.0
2017-Jun-21 20:00N 22°26' E 120°18'0 0.0
2017-Jun-21 19:30N 22°26' E 120°18'0 0.0
2017-Jun-21 19:00N 22°26' E 120°18'0 0.1
2017-Jun-21 18:30N 22°26' E 120°18'0 0.1
2017-Jun-21 18:00N 22°26' E 120°17'0 0.1
2017-Jun-21 17:30N 22°27' E 120°17'0 0.0
2017-Jun-21 17:00N 22°26' E 120°17'0 0.2
2017-Jun-21 16:30N 22°27' E 120°18'0 0.1
2017-Jun-21 16:00N 22°27' E 120°18'0 0.0
2017-Jun-21 15:30N 22°27' E 120°18'0 0.0
2017-Jun-21 15:00N 22°27' E 120°18'0 0.1
2017-Jun-21 14:30N 22°27' E 120°18'0 0.1
2017-Jun-21 12:42N 22°27' E 120°18'0 0.0
2017-Jun-21 11:21N 22°27' E 120°18'0 0.0
2017-Jun-21 10:51N 22°27' E 120°18'0 0.0
2017-Jun-21 10:30N 22°27' E 120°18'0 0.0
2017-Jun-21 10:00N 22°27' E 120°18'0 0.0
2017-Jun-21 09:30N 22°27' E 120°18'0 0.0
2017-Jun-21 09:00N 22°27' E 120°18'0 0.0
2017-Jun-21 08:30N 22°27' E 120°18'  

Dump ship's entire track history